createdAt,value
2019-04-23T00:01:58.369Z,14.20
2019-04-23T00:07:06.200Z,14.20
2019-04-23T00:09:40.977Z,14.20
2019-04-23T00:12:12.901Z,14.20
2019-04-23T00:14:45.914Z,14.20
2019-04-23T00:17:15.278Z,14.20
2019-04-23T00:19:41.147Z,14.20
2019-04-23T00:22:23.614Z,14.20
2019-04-23T00:30:18.619Z,14.20
2019-04-23T00:32:34.595Z,14.30
2019-04-23T00:35:05.882Z,14.30
2019-04-23T00:37:35.683Z,14.20
2019-04-23T00:40:11.426Z,14.20
2019-04-23T00:42:47.269Z,14.20
2019-04-23T00:45:16.617Z,14.20
2019-04-23T00:47:51.368Z,14.20
2019-04-23T00:50:36.624Z,14.10
2019-04-23T00:52:57.688Z,14.10
2019-04-23T01:03:17.167Z,14.00
2019-04-23T01:05:52.309Z,14.00
2019-04-23T01:08:25.011Z,13.90
2019-04-23T01:11:18.146Z,13.90
2019-04-23T01:16:14.924Z,13.90
2019-04-23T01:18:58.185Z,13.90
2019-04-23T01:21:22.412Z,13.80
2019-04-23T01:24:37.178Z,13.80
2019-04-23T01:27:49.139Z,13.80
2019-04-23T01:30:28.209Z,13.80
2019-04-23T01:32:44.098Z,13.80
2019-04-23T01:37:47.311Z,13.80
2019-04-23T01:40:32.318Z,13.80
2019-04-23T01:43:02.725Z,13.70
2019-04-23T01:51:22.527Z,13.70
2019-04-23T01:53:38.671Z,13.70
2019-04-23T01:56:11.441Z,13.70
2019-04-23T01:58:47.695Z,13.60
2019-04-23T02:01:21.134Z,13.60
2019-04-23T02:06:25.140Z,13.50
2019-04-23T02:08:53.562Z,13.50
2019-04-23T02:11:25.538Z,13.50
2019-04-23T02:19:09.950Z,13.40
2019-04-23T02:21:54.815Z,13.30
2019-04-23T02:24:36.331Z,13.30
2019-04-23T02:27:12.204Z,13.30
2019-04-23T02:29:51.396Z,13.10
2019-04-23T02:32:29.042Z,13.20
2019-04-23T02:35:50.634Z,13.10
2019-04-23T02:38:00.276Z,13.10
2019-04-23T02:43:22.137Z,13.00
2019-04-23T02:48:24.128Z,12.80
2019-04-23T02:50:53.954Z,12.90
2019-04-23T02:53:36.146Z,12.90
2019-04-23T02:56:05.076Z,12.90
2019-04-23T03:19:32.289Z,12.80
2019-04-23T03:24:59.858Z,12.80
2019-04-23T03:35:09.563Z,12.70
2019-04-23T03:37:55.975Z,12.70
2019-04-23T03:40:21.463Z,12.70
2019-04-23T03:43:10.505Z,12.60
2019-04-23T03:45:46.637Z,12.50
2019-04-23T03:48:21.693Z,12.40
2019-04-23T03:53:14.127Z,12.50
2019-04-23T03:58:21.264Z,12.50
2019-04-23T04:00:59.016Z,12.50
2019-04-23T04:06:20.915Z,12.40
2019-04-23T04:09:03.089Z,12.30
2019-04-23T04:11:14.631Z,12.20
2019-04-23T04:13:50.462Z,12.20
2019-04-23T04:16:35.227Z,12.20
2019-04-23T04:19:16.653Z,12.20
2019-04-23T04:32:43.188Z,12.20
2019-04-23T04:48:03.287Z,12.10
2019-04-23T04:50:40.005Z,12.10
2019-04-23T04:53:10.235Z,12.00
2019-04-23T04:55:45.144Z,12.10
2019-04-23T04:58:12.942Z,12.10
2019-04-23T05:06:21.201Z,12.10
2019-04-23T05:08:58.678Z,12.00
2019-04-23T05:11:35.085Z,12.00
2019-04-23T05:14:13.087Z,11.80
2019-04-23T05:16:49.005Z,12.10
2019-04-23T05:19:29.386Z,12.10
2019-04-23T05:21:53.963Z,12.10
2019-04-23T05:24:21.848Z,12.10
2019-04-23T05:26:37.604Z,12.20
2019-04-23T05:29:22.945Z,12.10
2019-04-23T05:32:01.915Z,12.10
2019-04-23T05:34:36.097Z,12.20
2019-04-23T05:37:04.188Z,12.30
2019-04-23T05:39:39.747Z,12.30
2019-04-23T05:42:26.351Z,12.30
2019-04-23T05:44:52.530Z,12.40
2019-04-23T05:47:23.201Z,12.40
2019-04-23T05:49:54.713Z,12.40
2019-04-23T05:55:56.805Z,12.50
2019-04-23T06:02:07.772Z,12.70
2019-04-23T06:08:25.787Z,12.90
2019-04-23T06:11:19.259Z,13.00
2019-04-23T06:13:56.244Z,13.10
2019-04-23T06:19:43.146Z,13.10
2019-04-23T06:30:00.852Z,13.40
2019-04-23T06:32:37.792Z,13.50
2019-04-23T06:35:11.763Z,13.60
2019-04-23T06:38:04.840Z,13.70
2019-04-23T06:40:14.253Z,13.70
2019-04-23T06:42:58.283Z,13.80
2019-04-23T06:50:47.648Z,13.90
2019-04-23T06:53:09.070Z,14.00
2019-04-23T06:55:42.250Z,14.10
2019-04-23T06:58:23.957Z,14.20
2019-04-23T07:00:48.812Z,14.20
2019-04-23T07:03:27.760Z,14.30
2019-04-23T07:06:17.216Z,14.40
2019-04-23T07:09:03.164Z,14.40
2019-04-23T07:11:27.035Z,14.50
2019-04-23T07:16:17.934Z,14.80
2019-04-23T07:18:50.352Z,14.80
2019-04-23T07:26:30.392Z,15.00
2019-04-23T07:31:26.563Z,15.30
2019-04-23T07:34:01.382Z,15.30
2019-04-23T07:36:35.565Z,15.40
2019-04-23T07:39:38.474Z,15.50
2019-04-23T07:42:25.089Z,15.50
2019-04-23T07:45:19.273Z,15.60
2019-04-23T07:48:10.801Z,15.60
2019-04-23T08:00:57.081Z,16.00
2019-04-23T08:03:23.691Z,16.10
2019-04-23T08:05:44.001Z,16.10
2019-04-23T08:08:26.475Z,16.20
2019-04-23T08:11:29.530Z,16.20
2019-04-23T08:13:45.047Z,16.20
2019-04-23T08:16:19.662Z,16.30
2019-04-23T08:18:45.159Z,16.40
2019-04-23T08:23:55.463Z,16.40
2019-04-23T08:29:14.160Z,16.50
2019-04-23T08:31:50.377Z,16.60
2019-04-23T08:34:36.886Z,16.70
2019-04-23T08:39:28.349Z,16.80
2019-04-23T08:42:10.975Z,16.90
2019-04-23T08:44:46.147Z,16.90
2019-04-23T08:50:02.352Z,16.90
2019-04-23T08:52:18.759Z,17.00
2019-04-23T08:54:58.086Z,17.10
2019-04-23T08:57:22.612Z,17.10
2019-04-23T09:00:07.586Z,17.10
2019-04-23T09:07:45.412Z,17.50
2019-04-23T09:12:55.322Z,17.60
2019-04-23T09:15:23.484Z,17.60
2019-04-23T09:20:31.246Z,17.50
2019-04-23T09:23:13.185Z,17.70
2019-04-23T09:31:16.790Z,17.80
2019-04-23T09:34:26.123Z,18.00
2019-04-23T09:49:46.588Z,18.50
2019-04-23T09:52:24.834Z,18.60
2019-04-23T09:54:58.200Z,18.70
2019-04-23T09:57:17.111Z,18.80
2019-04-23T10:02:22.163Z,18.70
2019-04-23T10:04:51.869Z,18.80
2019-04-23T10:07:26.412Z,18.90
2019-04-23T10:09:44.595Z,18.90
2019-04-23T10:12:14.798Z,18.90
2019-04-23T10:14:59.343Z,18.90
2019-04-23T10:17:22.183Z,18.90
2019-04-23T10:19:52.986Z,18.80
2019-04-23T10:22:25.119Z,18.70
2019-04-23T10:24:57.043Z,18.80
2019-04-23T10:27:27.450Z,18.90
2019-04-23T10:29:57.693Z,19.00
2019-04-23T10:32:27.392Z,19.10
2019-04-23T10:35:10.286Z,19.00
2019-04-23T10:37:39.639Z,19.00
2019-04-23T10:40:11.758Z,19.10
2019-04-23T10:42:43.754Z,19.20
2019-04-23T10:45:57.208Z,19.30
2019-04-23T10:49:00.726Z,19.30
2019-04-23T10:51:42.436Z,19.50
2019-04-23T10:54:18.615Z,19.50
2019-04-23T10:56:43.255Z,19.60
2019-04-23T10:59:15.083Z,19.60
2019-04-23T11:06:45.385Z,20.10
2019-04-23T11:09:36.594Z,20.20
2019-04-23T11:20:24.313Z,20.50
2019-04-23T11:22:36.179Z,20.50
2019-04-23T11:24:48.805Z,20.60
2019-04-23T11:27:32.669Z,20.60
2019-04-23T11:30:05.494Z,20.40
2019-04-23T11:37:45.645Z,20.70
2019-04-23T11:40:04.165Z,20.60
2019-04-23T11:42:38.801Z,20.60
2019-04-23T11:45:21.526Z,20.70
2019-04-23T11:55:02.487Z,20.80
2019-04-23T14:57:42.353Z,21.30
2019-04-23T15:02:38.255Z,21.50
2019-04-23T15:05:11.903Z,21.60
2019-04-23T15:07:38.073Z,21.70
2019-04-23T15:10:18.640Z,21.60
2019-04-23T15:15:19.514Z,21.70
2019-04-23T15:20:22.980Z,21.70
2019-04-23T15:23:25.692Z,21.70
2019-04-23T15:25:36.843Z,21.80
2019-04-23T15:28:07.595Z,21.80
2019-04-23T15:30:30.257Z,21.80
2019-04-23T15:33:11.784Z,21.70
2019-04-23T15:38:30.963Z,21.70
2019-04-23T15:40:45.660Z,21.70
2019-04-23T15:43:14.462Z,21.60
2019-04-23T15:45:44.479Z,21.60
2019-04-23T15:48:16.578Z,21.60
2019-04-23T15:50:51.682Z,21.50
2019-04-23T15:53:14.409Z,21.60
2019-04-23T15:55:59.739Z,21.60
2019-04-23T15:58:37.216Z,21.50
2019-04-23T16:01:21.399Z,21.50
2019-04-23T16:03:21.307Z,21.50
2019-04-23T16:05:51.069Z,21.50
2019-04-23T16:08:58.920Z,21.50
2019-04-23T16:11:33.294Z,21.60
2019-04-23T16:14:13.550Z,21.60
2019-04-23T16:16:29.775Z,21.50
2019-04-23T16:19:19.055Z,21.40
2019-04-23T16:24:20.484Z,21.20
2019-04-23T16:29:48.856Z,21.00
2019-04-23T16:32:14.654Z,20.90
2019-04-23T16:34:40.877Z,20.90
2019-04-23T16:45:09.606Z,20.80
2019-04-23T16:47:28.587Z,20.70
2019-04-23T16:50:11.442Z,20.70
2019-04-23T16:52:32.647Z,20.60
2019-04-23T16:55:07.546Z,20.60
2019-04-23T17:02:45.821Z,20.70
2019-04-23T17:05:19.528Z,20.60
2019-04-23T17:35:26.923Z,19.20
2019-04-23T17:38:24.851Z,19.10
2019-04-23T17:41:22.044Z,18.90
2019-04-23T17:58:06.278Z,18.50
2019-04-23T18:23:28.339Z,17.70
2019-04-23T18:26:12.303Z,17.60
2019-04-23T18:31:31.691Z,17.40
2019-04-23T18:36:54.584Z,17.30
2019-04-23T18:39:49.865Z,17.30
2019-04-23T18:56:41.838Z,16.80
2019-04-23T19:02:20.526Z,16.70
2019-04-23T19:14:25.674Z,16.50
2019-04-23T19:17:44.003Z,16.40
2019-04-23T19:22:28.084Z,16.30
2019-04-23T19:25:01.063Z,16.30
2019-04-23T19:27:37.148Z,16.20
2019-04-23T19:32:57.205Z,16.20
2019-04-23T19:39:11.099Z,16.00
2019-04-23T19:42:17.645Z,16.00
2019-04-23T19:45:21.075Z,15.90
2019-04-23T19:50:44.686Z,15.60
2019-04-23T20:04:39.333Z,15.50
2019-04-23T20:07:35.770Z,15.50
2019-04-23T20:10:12.379Z,15.50
2019-04-23T20:12:38.710Z,15.40
2019-04-23T20:15:00.289Z,15.40
2019-04-23T20:20:19.401Z,15.30
2019-04-23T20:22:52.010Z,15.30
2019-04-23T20:25:57.011Z,15.30
2019-04-23T20:29:11.961Z,15.20
2019-04-23T20:35:08.582Z,15.00
2019-04-23T20:40:44.625Z,14.90
2019-04-23T20:43:22.612Z,14.90
2019-04-23T20:46:00.261Z,14.70
2019-04-23T20:51:55.287Z,14.70
2019-04-23T20:54:35.478Z,14.80
2019-04-23T21:00:24.106Z,14.70
2019-04-23T21:05:36.842Z,14.70
2019-04-23T21:08:06.021Z,14.70
2019-04-23T21:10:53.700Z,14.60
2019-04-23T21:18:22.414Z,14.50
2019-04-23T21:21:00.873Z,14.40
2019-04-23T21:23:29.922Z,14.30
2019-04-23T21:26:17.515Z,14.20
2019-04-23T21:28:44.008Z,14.10
2019-04-23T21:31:19.503Z,14.10
2019-04-23T21:34:07.822Z,14.10
2019-04-23T21:37:07.836Z,14.10
2019-04-23T21:45:40.770Z,14.00
2019-04-23T21:50:49.564Z,14.00
2019-04-23T21:53:38.764Z,14.00
2019-04-23T21:58:58.058Z,14.00
2019-04-23T22:04:09.100Z,13.90
2019-04-23T22:16:50.066Z,13.70
2019-04-23T22:19:17.106Z,13.70
2019-04-23T22:21:50.820Z,13.60
2019-04-23T22:24:19.373Z,13.70
2019-04-23T22:27:05.875Z,13.60
2019-04-23T22:35:07.215Z,13.50
2019-04-23T22:37:48.315Z,13.50
2019-04-23T22:40:10.094Z,13.50
2019-04-23T22:45:44.400Z,13.30
2019-04-23T22:48:13.727Z,13.30
2019-04-23T22:51:05.153Z,13.30
2019-04-23T22:53:31.438Z,13.30
2019-04-23T22:56:10.924Z,13.20
2019-04-23T22:58:56.366Z,13.10
2019-04-23T23:06:52.271Z,13.10
2019-04-23T23:12:22.988Z,13.10
2019-04-23T23:15:01.401Z,13.10
2019-04-23T23:20:48.902Z,13.10
2019-04-23T23:23:17.981Z,13.10
2019-04-23T23:25:53.994Z,13.00
2019-04-23T23:28:40.996Z,13.00
2019-04-23T23:31:16.134Z,12.90
2019-04-23T23:34:06.872Z,12.80
2019-04-23T23:39:29.495Z,12.70
2019-04-23T23:42:04.117Z,12.80
2019-04-23T23:44:43.957Z,12.90
2019-04-23T23:49:54.504Z,12.70
2019-04-23T23:52:19.875Z,12.60
2019-04-23T23:54:53.101Z,12.70
